Airfield :
LOGIN :

Register | Disclaimer

   EN    FR    IT 

 










Legend :    VFR   Marginal VFR   IFR   Intensive IFR   Very Intensive IFR
Visi :
Ceiling :
>= 8 km
>= 3000ft
5 to 8 km
1000 to 3000 ft
1500m to 5 km
500 to 1000 ft
800 to 1500m
200 to 500 ft
< 800m
< 200 ft
Symbols :   Thunderstorms  Fog  Heavy snow  Heavy precipitations  Wind > 20 kt
SIGMETs :     Misc.  Thunderstorms  Icing  Turbulence  Mountain Waves  Volcanic Ashes







- Airport Elevation : 1161 ft
- IATA code : RJL


LELO - Logroño-Agoncillo

CURRENT METAR :
  • 230530Z 06004KT 360V100 9999 SCT012 BKN060 11/09 Q0995

EXPIRED METARs :
  • 230500Z 05004KT 360V100 9999 BKN013 11/08 Q0995
  • 230430Z 05006KT 020V080 9999 FEW050 11/08 Q0995
  • 230400Z 05006KT 020V080 9999 FEW050 11/08 Q0995
  • 230330Z AUTO 04007KT 360V070 CAVOK 11/08 Q0995
  • 230300Z AUTO 05007KT 360V080 9999 NCD 11/08 Q0995

TAF TAF LELO
Valid from the 23 at 06:00 until the 23 at 15:00 UTC


230500Z 2306/2315 10010KT 9999 BKN013 BKN050
PROB30
TEMPO 2306/2312 RA BKN012
PROB40
TEMPO 2312/2315 SHRA FEW030TCU
No reported NOTAMs for that airfield.



MET'MAP, your aeronautical weather chart ! - Copyright ORBIFLY December 2007 - Disclaimer

ORBIFLY MET'MAP TEAM :

Programming & Development : Alexandra Zaïnal
Concept & Development : Baudouin d'Aumeries
Co-Development & Prog : Marc-Olivier Méhu
Technical & hardware support : Manuel Goepfert

Contact : metmap@orbifly.com




SOURCES & CREDITS :

   NOAA